createdAt,value
2017-11-05T00:00:30.080Z,14.3
2017-11-05T00:01:32.260Z,14.3
2017-11-05T00:02:34.292Z,14.3
2017-11-05T00:03:36.328Z,14.3
2017-11-05T00:04:38.344Z,14.3
2017-11-05T00:05:40.417Z,14.3
2017-11-05T00:06:42.440Z,14.4
2017-11-05T00:07:44.703Z,14.4
2017-11-05T00:08:46.728Z,14.3
2017-11-05T00:09:49.293Z,14.4
2017-11-05T00:10:52.415Z,14.4
2017-11-05T00:11:54.451Z,14.3
2017-11-05T00:12:56.690Z,14.4
2017-11-05T00:13:59.719Z,14.4
2017-11-05T00:15:01.839Z,14.4
2017-11-05T00:16:04.566Z,14.3
2017-11-05T00:17:06.729Z,14.3
2017-11-05T00:18:08.759Z,14.3
2017-11-05T00:19:10.779Z,14.3
2017-11-05T00:20:12.811Z,14.3
2017-11-05T00:21:14.828Z,14.3
2017-11-05T00:22:16.858Z,14.4
2017-11-05T00:23:18.880Z,14.4
2017-11-05T00:24:20.904Z,14.4
2017-11-05T00:25:22.935Z,14.4
2017-11-05T00:26:24.958Z,14.4
2017-11-05T00:27:26.972Z,14.4
2017-11-05T00:28:29.004Z,14.4
2017-11-05T00:29:31.014Z,14.4
2017-11-05T00:30:33.044Z,14.4
2017-11-05T00:31:35.060Z,14.4
2017-11-05T00:32:37.081Z,14.4
2017-11-05T00:33:39.111Z,14.4
2017-11-05T00:34:41.127Z,14.4
2017-11-05T00:35:43.147Z,14.4
2017-11-05T00:36:45.223Z,14.4
2017-11-05T00:37:47.916Z,14.4
2017-11-05T00:38:49.924Z,14.4
2017-11-05T00:39:51.955Z,14.4
2017-11-05T00:40:53.986Z,14.4
2017-11-05T00:41:56.013Z,14.4
2017-11-05T00:42:58.043Z,14.4
2017-11-05T00:44:00.068Z,14.4
2017-11-05T00:45:02.086Z,14.4
2017-11-05T00:46:04.122Z,14.4
2017-11-05T00:47:06.132Z,14.4
2017-11-05T00:48:08.168Z,14.4
2017-11-05T00:49:10.188Z,14.4
2017-11-05T00:50:12.213Z,14.4
2017-11-05T00:51:14.229Z,14.4
2017-11-05T00:52:16.254Z,14.4
2017-11-05T00:53:18.280Z,14.4
2017-11-05T00:54:20.309Z,14.4
2017-11-05T00:55:22.330Z,14.4
2017-11-05T00:56:24.365Z,14.4
2017-11-05T00:57:26.388Z,14.4
2017-11-05T00:58:28.408Z,14.4
2017-11-05T00:59:30.430Z,14.4
2017-11-05T01:00:32.501Z,14.4
2017-11-05T01:01:34.485Z,14.4
2017-11-05T01:02:36.512Z,14.4
2017-11-05T01:03:38.536Z,14.4
2017-11-05T01:04:40.564Z,14.4
2017-11-05T01:05:42.586Z,14.4
2017-11-05T01:06:44.603Z,14.4
2017-11-05T01:07:46.638Z,14.4
2017-11-05T01:08:48.661Z,14.4
2017-11-05T01:09:50.671Z,14.5
2017-11-05T01:10:52.708Z,14.5
2017-11-05T01:11:54.732Z,14.5
2017-11-05T01:12:56.758Z,14.5
2017-11-05T01:13:58.784Z,14.5
2017-11-05T01:15:00.798Z,14.5
2017-11-05T01:16:03.178Z,14.5
2017-11-05T01:17:05.207Z,14.5
2017-11-05T01:18:07.237Z,14.5
2017-11-05T01:19:09.247Z,14.4
2017-11-05T01:20:11.277Z,14.4
2017-11-05T01:21:13.312Z,14.4
2017-11-05T01:22:15.331Z,14.4
2017-11-05T01:23:17.353Z,14.4
2017-11-05T01:24:19.375Z,14.4
2017-11-05T01:25:21.404Z,14.4
2017-11-05T01:26:23.418Z,14.4
2017-11-05T01:27:25.452Z,14.4
2017-11-05T01:28:27.485Z,14.4
2017-11-05T01:29:29.503Z,14.4
2017-11-05T01:30:31.526Z,14.4
2017-11-05T01:31:33.550Z,14.4
2017-11-05T01:32:35.579Z,14.4
2017-11-05T01:33:37.619Z,14.4
2017-11-05T01:34:39.622Z,14.3
2017-11-05T01:35:41.658Z,14.3
2017-11-05T01:36:43.682Z,14.4
2017-11-05T01:37:45.704Z,14.4
2017-11-05T01:38:47.726Z,14.3
2017-11-05T01:39:49.740Z,14.4
2017-11-05T01:40:51.769Z,14.4
2017-11-05T01:41:53.794Z,14.4
2017-11-05T01:42:55.818Z,14.4
2017-11-05T01:43:57.844Z,14.4
2017-11-05T01:44:59.860Z,14.4
2017-11-05T01:46:01.885Z,14.4
2017-11-05T01:47:03.905Z,14.4
2017-11-05T01:48:05.935Z,14.4
2017-11-05T01:49:07.965Z,14.4
2017-11-05T01:50:09.979Z,14.4
2017-11-05T01:51:12.004Z,14.4
2017-11-05T01:52:14.032Z,14.4
2017-11-05T01:53:16.045Z,14.4
2017-11-05T01:54:18.079Z,14.4
2017-11-05T01:55:20.108Z,14.4
2017-11-05T01:56:22.134Z,14.4
2017-11-05T01:57:24.157Z,14.4
2017-11-05T01:58:26.176Z,14.4
2017-11-05T01:59:28.211Z,14.4
2017-11-05T02:00:30.236Z,14.4
2017-11-05T02:01:32.250Z,14.4
2017-11-05T02:02:34.280Z,14.4
2017-11-05T02:03:36.299Z,14.4
2017-11-05T02:04:38.321Z,14.4
2017-11-05T02:05:40.339Z,14.4
2017-11-05T02:06:42.723Z,14.4
2017-11-05T02:07:45.115Z,14.4
2017-11-05T02:08:47.119Z,14.4
2017-11-05T02:09:49.152Z,14.4
2017-11-05T02:10:51.181Z,14.4
2017-11-05T02:11:53.548Z,14.5
2017-11-05T02:12:55.566Z,14.5
2017-11-05T02:13:57.601Z,14.4
2017-11-05T02:14:59.627Z,14.5
2017-11-05T02:16:01.648Z,14.5
2017-11-05T02:17:03.673Z,14.5
2017-11-05T02:18:05.706Z,14.4
2017-11-05T02:19:07.730Z,14.5
2017-11-05T02:20:09.762Z,14.4
2017-11-05T02:21:11.779Z,14.4
2017-11-05T02:22:13.809Z,14.4
2017-11-05T02:23:15.823Z,14.5
2017-11-05T02:24:17.854Z,14.5
2017-11-05T02:25:19.873Z,14.5
2017-11-05T02:26:21.903Z,14.5
2017-11-05T02:27:23.921Z,14.5
2017-11-05T02:28:26.307Z,14.5
2017-11-05T02:29:28.345Z,14.5
2017-11-05T02:30:30.717Z,14.5
2017-11-05T02:31:32.736Z,14.5
2017-11-05T02:32:34.762Z,14.5
2017-11-05T02:33:36.776Z,14.6
2017-11-05T02:34:38.812Z,14.5
2017-11-05T02:35:40.828Z,14.5
2017-11-05T02:36:42.855Z,14.5
2017-11-05T02:37:44.879Z,14.5
2017-11-05T02:38:46.904Z,14.5
2017-11-05T02:39:48.936Z,14.5
2017-11-05T02:40:50.956Z,14.6
2017-11-05T02:41:53.718Z,14.5
2017-11-05T02:42:55.741Z,14.5
2017-11-05T02:43:58.134Z,14.6
2017-11-05T02:45:00.164Z,14.6
2017-11-05T02:46:02.188Z,14.5
2017-11-05T02:47:04.211Z,14.6
2017-11-05T02:48:06.265Z,14.6
2017-11-05T02:49:08.266Z,14.6
2017-11-05T02:50:10.682Z,14.6
2017-11-05T02:51:12.702Z,14.6
2017-11-05T02:52:15.084Z,14.6
2017-11-05T02:53:17.110Z,14.6
2017-11-05T02:54:19.129Z,14.6
2017-11-05T02:55:21.155Z,14.6
2017-11-05T02:56:23.171Z,14.6
2017-11-05T02:57:25.563Z,14.6
2017-11-05T02:58:27.600Z,14.5
2017-11-05T02:59:29.617Z,14.5
2017-11-05T03:00:31.648Z,14.5
2017-11-05T03:01:33.673Z,14.5
2017-11-05T03:02:35.702Z,14.5
2017-11-05T03:03:37.750Z,14.5
2017-11-05T03:04:39.749Z,14.5
2017-11-05T03:05:41.786Z,14.4
2017-11-05T03:06:43.806Z,14.4
2017-11-05T03:07:45.829Z,14.4
2017-11-05T03:08:47.855Z,14.4
2017-11-05T03:09:49.880Z,14.4
2017-11-05T03:10:52.256Z,14.4
2017-11-05T03:11:54.281Z,14.3
2017-11-05T03:12:56.300Z,14.3
2017-11-05T03:13:58.331Z,14.3
2017-11-05T03:15:00.359Z,14.3
2017-11-05T03:16:02.386Z,14.2
2017-11-05T03:17:04.397Z,14.2
2017-11-05T03:18:06.420Z,14.2
2017-11-05T03:19:08.442Z,14.2
2017-11-05T03:20:10.465Z,14.2
2017-11-05T03:21:12.486Z,14.2
2017-11-05T03:22:14.518Z,14.1
2017-11-05T03:23:16.535Z,14.2
2017-11-05T03:24:18.543Z,14.1
2017-11-05T03:25:20.576Z,14.1
2017-11-05T03:26:22.603Z,14.1
2017-11-05T03:27:24.626Z,14.1
2017-11-05T03:28:26.645Z,14.1
2017-11-05T03:29:28.680Z,14.1
2017-11-05T03:30:30.699Z,14
2017-11-05T03:31:32.710Z,14.1
2017-11-05T03:32:35.125Z,14
2017-11-05T03:33:37.144Z,14
2017-11-05T03:34:39.170Z,14
2017-11-05T03:35:41.194Z,14
2017-11-05T03:36:43.217Z,14
2017-11-05T03:37:45.244Z,13.9
2017-11-05T03:38:47.259Z,13.9
2017-11-05T03:39:49.291Z,14
2017-11-05T03:40:51.319Z,14
2017-11-05T03:41:53.690Z,14
2017-11-05T03:42:55.711Z,14
2017-11-05T03:43:57.731Z,13.9
2017-11-05T03:44:59.759Z,13.9
2017-11-05T03:46:01.782Z,14
2017-11-05T03:47:03.813Z,13.9
2017-11-05T03:48:05.833Z,13.9
2017-11-05T03:49:08.230Z,13.9
2017-11-05T03:50:10.265Z,13.9
2017-11-05T03:51:12.289Z,13.9
2017-11-05T03:52:14.309Z,13.9
2017-11-05T03:53:16.334Z,13.9
2017-11-05T03:54:18.355Z,13.9
2017-11-05T03:55:20.747Z,13.9
2017-11-05T03:56:22.761Z,13.9
2017-11-05T03:57:24.796Z,13.9
2017-11-05T03:58:26.814Z,13.9
2017-11-05T03:59:28.833Z,13.8
2017-11-05T04:00:30.863Z,13.8
2017-11-05T04:01:32.873Z,13.8
2017-11-05T04:02:34.899Z,13.8
2017-11-05T04:03:37.283Z,13.9
2017-11-05T04:04:39.311Z,13.8
2017-11-05T04:05:41.326Z,13.8
2017-11-05T04:06:43.356Z,13.9
2017-11-05T04:07:45.377Z,13.9
2017-11-05T04:08:47.394Z,13.9
2017-11-05T04:09:49.427Z,13.9
2017-11-05T04:10:51.451Z,13.9
2017-11-05T04:11:53.469Z,13.9
2017-11-05T04:12:55.491Z,13.9
2017-11-05T04:13:57.514Z,13.9
2017-11-05T04:14:59.888Z,13.9
2017-11-05T04:16:01.914Z,14
2017-11-05T04:17:03.945Z,14
2017-11-05T04:18:05.968Z,14
2017-11-05T04:19:07.981Z,14
2017-11-05T04:20:10.013Z,14
2017-11-05T04:21:12.024Z,14
2017-11-05T04:22:14.405Z,14
2017-11-05T04:23:16.431Z,14
2017-11-05T04:24:18.805Z,14
2017-11-05T04:25:20.826Z,14
2017-11-05T04:26:22.852Z,14
2017-11-05T04:27:24.876Z,14.1
2017-11-05T04:28:26.899Z,14.1
2017-11-05T04:29:28.914Z,14
2017-11-05T04:30:30.953Z,14.1
2017-11-05T04:31:32.979Z,14.1
2017-11-05T04:32:34.990Z,14.1
2017-11-05T04:33:37.019Z,14.1
2017-11-05T04:34:39.414Z,14.1
2017-11-05T04:35:41.434Z,14.1
2017-11-05T04:36:43.466Z,14.1
2017-11-05T04:37:45.832Z,14.1
2017-11-05T04:38:47.866Z,14.1
2017-11-05T04:39:49.880Z,14.1
2017-11-05T04:40:52.256Z,14.1
2017-11-05T04:41:54.632Z,14.1
2017-11-05T04:42:56.660Z,14.1
2017-11-05T04:43:58.678Z,14.1
2017-11-05T04:45:00.705Z,14.1
2017-11-05T04:46:02.718Z,14.1
2017-11-05T04:47:04.743Z,14.1
2017-11-05T04:48:06.767Z,14.1
2017-11-05T04:49:08.792Z,14.1
2017-11-05T04:50:10.822Z,14.1
2017-11-05T04:51:12.844Z,14
2017-11-05T04:52:14.857Z,14.1
2017-11-05T04:53:16.890Z,14.1
2017-11-05T04:54:18.903Z,14.1
2017-11-05T04:55:20.939Z,14
2017-11-05T04:56:22.957Z,14
2017-11-05T04:57:24.982Z,14
2017-11-05T04:58:27.010Z,14
2017-11-05T04:59:29.022Z,14
2017-11-05T05:00:31.046Z,14
2017-11-05T05:01:33.091Z,13.9
2017-11-05T05:02:35.110Z,13.9
2017-11-05T05:03:37.130Z,13.9
2017-11-05T05:04:39.148Z,13.9
2017-11-05T05:05:41.178Z,13.9
2017-11-05T05:06:43.571Z,13.8
2017-11-05T05:07:45.602Z,13.9
2017-11-05T05:08:47.617Z,13.8
2017-11-05T05:09:49.637Z,13.8
2017-11-05T05:10:51.678Z,13.8
2017-11-05T05:11:53.689Z,13.9
2017-11-05T05:12:55.715Z,13.8
2017-11-05T05:13:57.740Z,13.9
2017-11-05T05:14:59.764Z,13.8
2017-11-05T05:16:01.783Z,13.9
2017-11-05T05:17:03.794Z,13.9
2017-11-05T05:18:05.833Z,13.9
2017-11-05T05:19:07.858Z,13.9
2017-11-05T05:20:09.870Z,13.9
2017-11-05T05:21:11.905Z,13.8
2017-11-05T05:22:13.928Z,13.9
2017-11-05T05:23:15.953Z,13.9
2017-11-05T05:24:17.977Z,13.9
2017-11-05T05:25:20.009Z,13.9
2017-11-05T05:26:22.035Z,13.8
2017-11-05T05:27:24.050Z,13.9
2017-11-05T05:28:26.074Z,13.8
2017-11-05T05:29:28.158Z,13.9
2017-11-05T05:30:30.184Z,13.8
2017-11-05T05:31:32.207Z,13.8
2017-11-05T05:32:34.236Z,13.8
2017-11-05T05:33:36.263Z,13.8
2017-11-05T05:34:38.272Z,13.8
2017-11-05T05:35:40.298Z,13.8
2017-11-05T05:36:42.327Z,13.8
2017-11-05T05:37:44.350Z,13.8
2017-11-05T05:38:46.379Z,13.8
2017-11-05T05:39:48.400Z,13.9
2017-11-05T05:40:50.426Z,13.8
2017-11-05T05:41:52.458Z,13.8
2017-11-05T05:42:54.486Z,13.9
2017-11-05T05:43:56.491Z,13.8
2017-11-05T05:44:58.521Z,13.9
2017-11-05T05:46:00.556Z,13.9
2017-11-05T05:47:02.576Z,13.9
2017-11-05T05:48:04.601Z,13.8
2017-11-05T05:49:07.017Z,13.8
2017-11-05T05:50:09.045Z,13.8
2017-11-05T05:51:11.058Z,13.8
2017-11-05T05:52:13.081Z,13.8
2017-11-05T05:53:15.113Z,13.8
2017-11-05T05:54:17.132Z,13.9
2017-11-05T05:55:19.505Z,13.9
2017-11-05T05:56:21.527Z,13.9
2017-11-05T05:57:23.557Z,13.9
2017-11-05T05:58:25.584Z,13.9
2017-11-05T05:59:27.602Z,13.9
2017-11-05T06:00:29.986Z,13.9
2017-11-05T06:01:32.011Z,13.9
2017-11-05T06:02:34.387Z,13.9
2017-11-05T06:03:36.406Z,14
2017-11-05T06:04:38.419Z,14
2017-11-05T06:05:40.448Z,14
2017-11-05T06:06:42.466Z,14
2017-11-05T06:07:44.489Z,14
2017-11-05T06:08:46.513Z,13.9
2017-11-05T06:09:48.532Z,14
2017-11-05T06:10:50.559Z,14
2017-11-05T06:11:52.573Z,14
2017-11-05T06:12:54.605Z,14
2017-11-05T06:13:56.632Z,14.1
2017-11-05T06:14:58.656Z,14
2017-11-05T06:16:00.692Z,14.1
2017-11-05T06:17:03.077Z,14.1
2017-11-05T06:18:05.460Z,14.1
2017-11-05T06:19:07.472Z,14.1
2017-11-05T06:20:09.504Z,14.1
2017-11-05T06:21:11.528Z,14.1
2017-11-05T06:22:13.552Z,14.1
2017-11-05T06:23:15.573Z,14.2
2017-11-05T06:24:17.596Z,14.2
2017-11-05T06:25:19.619Z,14.2
2017-11-05T06:26:21.661Z,14.2
2017-11-05T06:27:23.669Z,14.2
2017-11-05T06:28:25.695Z,14.3
2017-11-05T06:29:27.719Z,14.2
2017-11-05T06:30:29.744Z,14.3
2017-11-05T06:31:31.791Z,14.3
2017-11-05T06:32:33.792Z,14.3
2017-11-05T06:33:35.809Z,14.3
2017-11-05T06:34:37.840Z,14.3
2017-11-05T06:35:39.852Z,14.4
2017-11-05T06:36:41.872Z,14.4
2017-11-05T06:37:43.904Z,14.4
2017-11-05T06:38:45.933Z,14.4
2017-11-05T06:39:47.953Z,14.4
2017-11-05T06:40:49.985Z,14.4
2017-11-05T06:41:52.008Z,14.4
2017-11-05T06:42:54.384Z,14.4
2017-11-05T06:43:56.409Z,14.4
2017-11-05T06:44:58.434Z,14.5
2017-11-05T06:46:00.463Z,14.5
2017-11-05T06:47:02.477Z,14.5
2017-11-05T06:48:04.868Z,14.5
2017-11-05T06:49:06.889Z,14.5
2017-11-05T06:50:08.904Z,14.5
2017-11-05T06:51:10.936Z,14.6
2017-11-05T06:52:12.957Z,14.6
2017-11-05T06:53:14.989Z,14.6
2017-11-05T06:54:17.013Z,14.6
2017-11-05T06:55:19.027Z,14.6
2017-11-05T06:56:21.063Z,14.6
2017-11-05T06:57:23.081Z,14.6
2017-11-05T06:58:25.099Z,14.6
2017-11-05T06:59:27.137Z,14.6
2017-11-05T07:00:29.159Z,14.7
2017-11-05T07:01:31.190Z,14.7
2017-11-05T07:02:33.211Z,14.7
2017-11-05T07:03:35.238Z,14.7
2017-11-05T07:04:37.621Z,14.7
2017-11-05T07:05:39.642Z,14.8
2017-11-05T07:06:41.671Z,14.7
2017-11-05T07:07:43.694Z,14.7
2017-11-05T07:08:45.709Z,14.7
2017-11-05T07:09:47.744Z,14.7
2017-11-05T07:10:50.117Z,14.8
2017-11-05T07:11:52.143Z,14.8
2017-11-05T07:12:54.174Z,14.8
2017-11-05T07:13:56.603Z,14.8
2017-11-05T07:14:58.661Z,14.8
2017-11-05T07:16:00.695Z,14.8
2017-11-05T07:17:02.722Z,14.8
2017-11-05T07:18:04.752Z,14.8
2017-11-05T07:19:06.784Z,14.8
2017-11-05T07:20:08.813Z,14.8
2017-11-05T07:21:10.835Z,14.9
2017-11-05T07:22:12.896Z,14.9
2017-11-05T07:23:14.904Z,14.9
2017-11-05T07:24:16.918Z,14.9
2017-11-05T07:25:18.980Z,14.9
2017-11-05T07:26:21.006Z,14.9
2017-11-05T07:27:23.394Z,14.9
2017-11-05T07:28:25.415Z,14.9
2017-11-05T07:29:27.440Z,14.9
2017-11-05T07:30:29.477Z,14.9
2017-11-05T07:31:31.496Z,15
2017-11-05T07:32:33.554Z,14.9
2017-11-05T07:33:35.553Z,15
2017-11-05T07:34:37.574Z,15
2017-11-05T07:35:39.605Z,15
2017-11-05T07:36:41.630Z,15
2017-11-05T07:37:43.657Z,15
2017-11-05T07:38:45.678Z,15
2017-11-05T07:39:47.711Z,15
2017-11-05T07:40:49.737Z,15
2017-11-05T07:41:51.751Z,15
2017-11-05T07:42:53.778Z,15
2017-11-05T07:43:55.810Z,15
2017-11-05T07:44:57.839Z,15
2017-11-05T07:45:59.870Z,15
2017-11-05T07:47:02.271Z,15
2017-11-05T07:48:04.302Z,15
2017-11-05T07:49:06.329Z,15
2017-11-05T07:50:08.348Z,15.1
2017-11-05T07:51:10.387Z,15.1
2017-11-05T07:52:12.631Z,15.1
2017-11-05T07:53:15.003Z,15.1
2017-11-05T07:54:17.040Z,15.1
2017-11-05T07:55:19.057Z,15.1
2017-11-05T07:56:21.077Z,15.2
2017-11-05T07:57:23.117Z,15.2
2017-11-05T07:58:25.135Z,15.2
2017-11-05T07:59:27.171Z,15.2
2017-11-05T08:00:29.211Z,15.2
2017-11-05T08:01:31.223Z,15.2
2017-11-05T08:02:33.255Z,15.2
2017-11-05T08:03:35.270Z,15.2
2017-11-05T08:04:37.316Z,15.2
2017-11-05T08:05:39.338Z,15.2
2017-11-05T08:06:41.368Z,15.2
2017-11-05T08:07:43.398Z,15.2
2017-11-05T08:08:45.415Z,15.2
2017-11-05T08:09:47.794Z,15.2
2017-11-05T08:10:49.832Z,15.2
2017-11-05T08:11:51.861Z,15.2
2017-11-05T08:12:53.895Z,15.2
2017-11-05T08:13:55.925Z,15.2
2017-11-05T08:14:57.964Z,15.2
2017-11-05T08:15:59.990Z,15.2
2017-11-05T08:17:02.021Z,15.2
2017-11-05T08:18:04.047Z,15.3
2017-11-05T08:19:06.070Z,15.3
2017-11-05T08:20:08.110Z,15.3
2017-11-05T08:21:10.123Z,15.3
2017-11-05T08:22:12.170Z,15.3
2017-11-05T08:23:14.200Z,15.2
2017-11-05T08:24:16.223Z,15.2
2017-11-05T08:25:18.245Z,15.2
2017-11-05T08:26:20.265Z,15.2
2017-11-05T08:27:22.293Z,15.2
2017-11-05T08:28:24.327Z,15.3
2017-11-05T08:29:26.337Z,15.3
2017-11-05T08:30:28.376Z,15.2
2017-11-05T08:31:30.408Z,15.2
2017-11-05T08:32:32.427Z,15.2
2017-11-05T08:33:34.451Z,15.2
2017-11-05T08:34:36.508Z,15.2
2017-11-05T08:35:38.520Z,15.2
2017-11-05T08:36:40.545Z,15.2
2017-11-05T08:37:42.574Z,15.2
2017-11-05T08:38:44.604Z,15.2
2017-11-05T08:39:46.635Z,15.2
2017-11-05T08:40:48.691Z,15.2
2017-11-05T08:41:51.087Z,15.2
2017-11-05T08:42:53.114Z,15.2
2017-11-05T08:43:55.132Z,15.2
2017-11-05T08:44:57.163Z,15.2
2017-11-05T08:45:59.185Z,15.2
2017-11-05T08:47:01.216Z,15.2
2017-11-05T08:48:03.238Z,15.2
2017-11-05T08:49:05.257Z,15.1
2017-11-05T08:50:07.283Z,15.1
2017-11-05T08:51:09.315Z,15.1
2017-11-05T08:52:11.346Z,15.1
2017-11-05T08:53:13.361Z,15.1
2017-11-05T08:54:15.739Z,15.1
2017-11-05T08:55:17.770Z,15.1
2017-11-05T08:56:19.791Z,15.1
2017-11-05T08:57:21.817Z,15.1
2017-11-05T08:58:23.840Z,15.1
2017-11-05T08:59:25.866Z,15.1
2017-11-05T09:00:27.885Z,15.1
2017-11-05T09:01:29.907Z,15.1
2017-11-05T09:02:31.950Z,15.1
2017-11-05T09:03:33.968Z,15.1
2017-11-05T09:04:35.989Z,15.1
2017-11-05T09:05:38.022Z,15.1
2017-11-05T09:06:40.048Z,15
2017-11-05T09:07:42.076Z,15
2017-11-05T09:08:44.096Z,15
2017-11-05T09:09:46.141Z,15
2017-11-05T09:10:48.162Z,15
2017-11-05T09:11:50.180Z,15.1
2017-11-05T09:12:52.206Z,15.1
2017-11-05T09:13:54.577Z,15.1
2017-11-05T09:14:56.609Z,15.1
2017-11-05T09:15:58.639Z,15.1
2017-11-05T09:17:00.667Z,15.2
2017-11-05T09:18:03.048Z,15.2
2017-11-05T09:19:05.064Z,15.2
2017-11-05T09:20:07.092Z,15.2
2017-11-05T09:21:09.124Z,15.2
2017-11-05T09:22:11.151Z,15.3
2017-11-05T09:23:13.543Z,15.3
2017-11-05T09:24:15.912Z,15.3
2017-11-05T09:25:17.944Z,15.3
2017-11-05T09:26:19.967Z,15.3
2017-11-05T09:27:21.997Z,15.3
2017-11-05T09:28:24.020Z,15.4
2017-11-05T09:29:26.045Z,15.4
2017-11-05T09:30:28.447Z,15.4
2017-11-05T09:31:30.478Z,15.4
2017-11-05T09:32:32.518Z,15.4
2017-11-05T09:33:34.527Z,15.4
2017-11-05T09:34:36.549Z,15.4
2017-11-05T09:35:38.584Z,15.4
2017-11-05T09:36:40.607Z,15.4
2017-11-05T09:37:42.629Z,15.4
2017-11-05T09:38:44.670Z,15.4
2017-11-05T09:39:47.060Z,15.4
2017-11-05T09:40:49.070Z,15.4
2017-11-05T09:41:51.100Z,15.4
2017-11-05T09:42:53.126Z,15.4
2017-11-05T09:43:55.507Z,15.4
2017-11-05T09:44:57.876Z,15.4
2017-11-05T09:45:59.914Z,15.4
2017-11-05T09:47:01.923Z,15.5
2017-11-05T09:48:03.954Z,15.5
2017-11-05T09:49:05.977Z,15.5
2017-11-05T09:50:08.016Z,15.5
2017-11-05T09:51:10.050Z,15.5
2017-11-05T09:52:12.053Z,15.5
2017-11-05T09:53:14.078Z,15.5
2017-11-05T09:54:16.111Z,15.5
2017-11-05T09:55:18.134Z,15.5
2017-11-05T09:56:20.160Z,15.5
2017-11-05T09:57:22.193Z,15.6
2017-11-05T09:58:24.604Z,15.6
2017-11-05T09:59:26.622Z,15.6
2017-11-05T10:00:28.655Z,15.6
2017-11-05T10:01:31.031Z,15.6
2017-11-05T10:02:33.052Z,15.6
2017-11-05T10:03:35.434Z,15.6
2017-11-05T10:04:37.464Z,15.6
2017-11-05T10:05:39.503Z,15.6
2017-11-05T10:06:41.541Z,15.5
2017-11-05T10:11:26.558Z,15.3
2017-11-05T10:13:01.093Z,15.3
2017-11-05T10:14:06.525Z,15.2
2017-11-05T10:15:08.890Z,15.2
2017-11-05T10:16:11.276Z,15.3
2017-11-05T10:17:13.641Z,15.4
2017-11-05T10:18:16.007Z,15.4
2017-11-05T10:19:18.467Z,15.5
2017-11-05T10:20:20.917Z,15.6
2017-11-05T10:21:23.291Z,15.7
2017-11-05T10:22:25.667Z,15.8
2017-11-05T10:24:12.929Z,15.9
2017-11-05T10:25:15.512Z,16
2017-11-05T10:26:17.944Z,16.1
2017-11-05T10:27:20.375Z,16.1
2017-11-05T10:28:22.816Z,16.2
2017-11-05T10:29:25.616Z,16.3
2017-11-05T10:30:28.043Z,16.3
2017-11-05T10:31:30.828Z,16.4
2017-11-05T10:32:33.633Z,16.4
2017-11-05T10:33:36.056Z,16.4
2017-11-05T10:34:38.486Z,16.5
2017-11-05T10:35:40.915Z,16.5
2017-11-05T10:36:43.350Z,16.6
2017-11-05T10:37:45.789Z,16.6
2017-11-05T10:38:48.220Z,16.7
2017-11-05T10:39:50.643Z,16.7
2017-11-05T10:40:53.077Z,16.7
2017-11-05T10:41:55.512Z,16.7
2017-11-05T10:42:57.930Z,16.7
2017-11-05T10:44:00.361Z,16.7
2017-11-05T10:45:48.091Z,16.7
2017-11-05T10:46:50.507Z,16.8
2017-11-05T10:47:53.157Z,16.8
2017-11-05T10:48:56.005Z,16.8
2017-11-05T10:49:58.445Z,16.8
2017-11-05T10:51:00.812Z,16.9
2017-11-05T10:52:03.191Z,16.9
2017-11-05T10:53:05.575Z,16.9
2017-11-05T10:54:07.948Z,16.9
2017-11-05T10:55:10.330Z,16.9
2017-11-05T10:56:12.704Z,16.9
2017-11-05T10:57:15.095Z,16.9
2017-11-05T10:58:17.474Z,16.9
2017-11-05T10:59:19.850Z,17
2017-11-05T11:00:22.218Z,17
2017-11-05T11:01:24.602Z,17
2017-11-05T11:02:26.981Z,17
2017-11-05T11:03:29.360Z,17
2017-11-05T11:04:31.737Z,17.1
2017-11-05T11:05:34.119Z,17.1
2017-11-05T11:06:36.504Z,17
2017-11-05T11:07:38.886Z,17
2017-11-05T11:08:41.263Z,17
2017-11-05T11:09:43.638Z,17
2017-11-05T11:10:46.018Z,17
2017-11-05T11:11:48.408Z,17
2017-11-05T11:12:50.791Z,17
2017-11-05T11:13:53.163Z,17
2017-11-05T11:14:55.547Z,17
2017-11-05T11:15:57.925Z,17
2017-11-05T11:17:00.659Z,17
2017-11-05T11:18:03.391Z,17
2017-11-05T11:19:05.781Z,17
2017-11-05T11:20:08.150Z,17
2017-11-05T11:21:10.529Z,17
2017-11-05T11:22:12.902Z,17
2017-11-05T11:23:15.276Z,17
2017-11-05T11:24:17.664Z,17
2017-11-05T11:25:20.045Z,17
2017-11-05T11:26:22.417Z,17
2017-11-05T11:27:24.807Z,17
2017-11-05T11:28:27.179Z,17
2017-11-05T11:29:29.920Z,17.1
2017-11-05T11:30:32.299Z,17.1
2017-11-05T11:31:34.675Z,17.1
2017-11-05T11:32:37.053Z,17.1
2017-11-05T11:33:39.444Z,17.1
2017-11-05T11:34:41.812Z,17
2017-11-05T11:35:44.203Z,17
2017-11-05T11:36:46.577Z,17
2017-11-05T11:37:48.948Z,17
2017-11-05T11:38:51.683Z,17
2017-11-05T11:39:54.056Z,17
2017-11-05T11:40:56.430Z,17
2017-11-05T11:41:58.819Z,17
2017-11-05T11:43:01.204Z,17
2017-11-05T11:44:03.588Z,16.9
2017-11-05T11:45:05.962Z,16.9
2017-11-05T11:46:08.339Z,16.9
2017-11-05T11:47:10.730Z,16.9
2017-11-05T11:48:13.111Z,16.9
2017-11-05T11:49:15.489Z,16.9
2017-11-05T11:50:17.867Z,16.9
2017-11-05T11:51:20.242Z,16.9
2017-11-05T11:52:22.630Z,16.8
2017-11-05T11:53:25.010Z,16.8
2017-11-05T11:54:27.384Z,16.8
2017-11-05T11:55:29.762Z,16.8
2017-11-05T11:56:32.145Z,16.8
2017-11-05T11:57:34.886Z,16.9
2017-11-05T11:58:37.270Z,16.9
2017-11-05T11:59:39.645Z,16.9
2017-11-05T12:00:42.025Z,16.9
2017-11-05T12:01:44.414Z,16.9
2017-11-05T12:02:46.795Z,16.9
2017-11-05T12:03:49.171Z,16.9
2017-11-05T12:04:51.551Z,16.9
2017-11-05T12:05:53.926Z,16.9
2017-11-05T12:06:56.664Z,17
2017-11-05T12:07:59.052Z,17
2017-11-05T12:09:01.791Z,17
2017-11-05T12:10:04.169Z,17
2017-11-05T12:11:06.554Z,17
2017-11-05T12:12:08.931Z,17
2017-11-05T12:13:11.319Z,17
2017-11-05T12:14:13.685Z,17
2017-11-05T12:15:16.076Z,17
2017-11-05T12:16:18.436Z,17
2017-11-05T12:17:20.814Z,17
2017-11-05T12:18:23.214Z,17
2017-11-05T12:19:25.579Z,17
2017-11-05T12:20:27.963Z,16.9
2017-11-05T12:21:30.378Z,17
2017-11-05T12:22:33.072Z,17
2017-11-05T12:23:35.460Z,17
2017-11-05T12:24:37.838Z,17
2017-11-05T12:25:40.208Z,17
2017-11-05T12:26:42.597Z,17.1
2017-11-05T12:27:45.324Z,17
2017-11-05T12:28:47.709Z,17
2017-11-05T12:29:50.105Z,17
2017-11-05T12:30:52.480Z,17
2017-11-05T12:31:54.859Z,16.9
2017-11-05T12:32:57.244Z,16.9
2017-11-05T12:33:59.615Z,16.9
2017-11-05T12:35:02.002Z,16.8
2017-11-05T12:36:04.723Z,16.8
2017-11-05T12:37:07.103Z,16.8
2017-11-05T12:38:09.475Z,16.7
2017-11-05T12:39:11.863Z,16.7
2017-11-05T12:40:14.236Z,16.7
2017-11-05T12:41:16.615Z,16.7
2017-11-05T12:42:18.995Z,16.8
2017-11-05T12:43:21.383Z,16.8
2017-11-05T12:44:23.755Z,16.8
2017-11-05T12:45:26.135Z,16.8
2017-11-05T12:46:28.513Z,16.8
2017-11-05T12:47:30.886Z,16.8
2017-11-05T12:48:33.644Z,16.8
2017-11-05T12:49:36.031Z,16.8
2017-11-05T12:50:38.404Z,16.8
2017-11-05T12:51:40.790Z,16.7
2017-11-05T12:52:43.173Z,16.8
2017-11-05T12:53:45.554Z,16.7
2017-11-05T12:54:47.930Z,16.7
2017-11-05T12:55:50.663Z,16.8
2017-11-05T12:56:53.042Z,16.8
2017-11-05T12:57:55.424Z,16.8
2017-11-05T12:58:57.799Z,16.8
2017-11-05T13:00:00.178Z,16.8
2017-11-05T13:01:02.560Z,16.8
2017-11-05T13:02:04.941Z,16.8
2017-11-05T13:03:07.314Z,16.8
2017-11-05T13:04:09.698Z,16.8
2017-11-05T13:05:12.080Z,16.8
2017-11-05T13:06:14.467Z,16.8
2017-11-05T13:07:16.839Z,16.8
2017-11-05T13:08:19.552Z,16.8
2017-11-05T13:09:21.932Z,16.9
2017-11-05T13:10:24.323Z,16.9
2017-11-05T13:11:26.694Z,16.9
2017-11-05T13:12:29.074Z,16.9
2017-11-05T13:13:31.806Z,16.9
2017-11-05T13:14:34.179Z,17
2017-11-05T13:15:36.549Z,17
2017-11-05T13:16:38.935Z,17
2017-11-05T13:17:41.671Z,17
2017-11-05T13:18:44.055Z,17
2017-11-05T13:19:46.439Z,17.1
2017-11-05T13:20:48.814Z,17.1
2017-11-05T13:21:51.545Z,17.1
2017-11-05T13:22:53.929Z,17.1
2017-11-05T13:23:56.307Z,17.1
2017-11-05T13:24:58.685Z,17.2
2017-11-05T13:26:01.061Z,17.2
2017-11-05T13:27:03.432Z,17.2
2017-11-05T13:28:05.814Z,17.2
2017-11-05T13:29:08.194Z,17.2
2017-11-05T13:30:10.578Z,17.2
2017-11-05T13:31:12.960Z,17.1
2017-11-05T13:32:15.341Z,17.1
2017-11-05T13:33:17.716Z,17.1
2017-11-05T13:34:20.109Z,17
2017-11-05T13:35:22.488Z,17
2017-11-05T13:36:24.867Z,17
2017-11-05T13:37:27.244Z,16.9
2017-11-05T13:38:29.629Z,16.9
2017-11-05T13:39:32.002Z,16.9
2017-11-05T13:40:34.376Z,16.9
2017-11-05T13:41:36.767Z,16.8
2017-11-05T13:42:39.155Z,16.8
2017-11-05T13:43:41.883Z,16.8
2017-11-05T13:44:44.260Z,16.8
2017-11-05T13:45:46.646Z,16.8
2017-11-05T13:46:49.015Z,16.9
2017-11-05T13:47:51.410Z,16.9
2017-11-05T13:48:53.779Z,16.9
2017-11-05T13:49:56.165Z,16.9
2017-11-05T13:50:58.552Z,16.9
2017-11-05T13:52:00.928Z,16.9
2017-11-05T13:53:03.300Z,16.9
2017-11-05T13:54:05.686Z,16.9
2017-11-05T13:55:08.062Z,16.9
2017-11-05T13:56:10.448Z,16.9
2017-11-05T13:57:12.828Z,16.9
2017-11-05T13:58:15.196Z,16.9
2017-11-05T13:59:17.579Z,16.9
2017-11-05T14:00:19.959Z,16.9
2017-11-05T14:01:22.343Z,16.9
2017-11-05T14:02:25.075Z,16.9